createdAt,value
2016-05-24T00:00:28.420Z,0
2016-05-24T00:01:29.000Z,0
2016-05-24T00:02:28.801Z,0
2016-05-24T00:03:28.381Z,0
2016-05-24T00:04:28.634Z,0
2016-05-24T00:05:42.901Z,0
2016-05-24T00:06:28.701Z,0
2016-05-24T00:07:28.469Z,0
2016-05-24T00:08:28.519Z,0
2016-05-24T00:09:42.569Z,0
2016-05-24T00:10:28.525Z,0
2016-05-24T00:11:28.480Z,0
2016-05-24T00:12:28.764Z,0
2016-05-24T00:14:43.269Z,0
2016-05-24T00:15:28.600Z,0
2016-05-24T00:16:42.634Z,0
2016-05-24T00:17:28.591Z,0
2016-05-24T00:19:29.080Z,0
2016-05-24T00:20:28.552Z,0
2016-05-24T00:21:56.945Z,0
2016-05-24T00:22:56.916Z,0
2016-05-24T00:23:28.607Z,0
2016-05-24T00:24:28.640Z,0
2016-05-24T00:25:28.643Z,0
2016-05-24T00:26:42.739Z,0
2016-05-24T00:29:29.076Z,0
2016-05-24T00:30:28.859Z,0
2016-05-24T00:31:28.660Z,0
2016-05-24T00:32:29.068Z,0
2016-05-24T00:33:28.915Z,0
2016-05-24T00:34:28.682Z,0
2016-05-24T00:35:30.310Z,0
2016-05-24T00:36:29.109Z,0
2016-05-24T00:37:29.331Z,0
2016-05-24T00:38:28.975Z,0
2016-05-24T00:39:29.337Z,0
2016-05-24T00:40:28.449Z,0
2016-05-24T00:41:29.545Z,0
2016-05-24T00:42:28.970Z,0
2016-05-24T00:43:28.972Z,0
2016-05-24T00:44:29.881Z,0
2016-05-24T00:45:42.806Z,0
2016-05-24T00:46:29.231Z,0
2016-05-24T00:48:29.111Z,0
2016-05-24T00:49:28.802Z,0
2016-05-24T00:50:28.508Z,0
2016-05-24T00:51:29.228Z,0
2016-05-24T00:52:29.450Z,0
2016-05-24T00:53:29.046Z,0
2016-05-24T00:54:28.408Z,0
2016-05-24T00:55:28.880Z,0
2016-05-24T00:56:28.883Z,0
2016-05-24T00:57:28.916Z,0
2016-05-24T00:58:28.872Z,0
2016-05-24T00:59:29.812Z,0
2016-05-24T01:00:29.107Z,0
2016-05-24T01:01:29.138Z,0
2016-05-24T01:02:28.857Z,0
2016-05-24T01:03:28.857Z,0
2016-05-24T01:04:29.044Z,0
2016-05-24T01:05:43.161Z,0
2016-05-24T01:06:29.362Z,0
2016-05-24T01:07:29.374Z,0
2016-05-24T01:08:28.466Z,0
2016-05-24T01:09:29.432Z,0
2016-05-24T01:10:30.286Z,0
2016-05-24T01:11:29.401Z,0
2016-05-24T01:12:29.455Z,0
2016-05-24T01:13:29.227Z,0
2016-05-24T01:14:29.671Z,0
2016-05-24T01:15:29.209Z,0
2016-05-24T01:16:29.290Z,0
2016-05-24T01:17:43.184Z,0
2016-05-24T01:18:29.673Z,0
2016-05-24T01:19:29.348Z,0
2016-05-24T01:20:29.242Z,0
2016-05-24T01:21:43.215Z,0
2016-05-24T01:22:29.311Z,0
2016-05-24T01:23:30.158Z,0
2016-05-24T01:24:29.489Z,0
2016-05-24T01:25:29.258Z,0
2016-05-24T01:26:29.729Z,0
2016-05-24T01:27:29.389Z,0
2016-05-24T01:28:29.547Z,0
2016-05-24T01:29:30.051Z,0
2016-05-24T01:30:29.803Z,0
2016-05-24T01:31:43.714Z,0
2016-05-24T01:32:29.107Z,0
2016-05-24T01:33:30.016Z,0
2016-05-24T01:34:29.689Z,0
2016-05-24T01:35:44.130Z,0
2016-05-24T01:36:30.069Z,0
2016-05-24T01:37:29.308Z,0
2016-05-24T01:38:29.467Z,0
2016-05-24T01:39:29.875Z,0
2016-05-24T01:40:43.925Z,0
2016-05-24T01:41:29.208Z,0
2016-05-24T01:42:29.899Z,0
2016-05-24T01:43:44.432Z,0
2016-05-24T01:44:29.686Z,0
2016-05-24T01:45:29.563Z,0
2016-05-24T01:46:29.707Z,0
2016-05-24T01:47:29.271Z,0
2016-05-24T01:48:43.571Z,0
2016-05-24T01:49:43.809Z,0
2016-05-24T01:50:29.530Z,0
2016-05-24T01:51:29.595Z,0
2016-05-24T01:52:29.410Z,0
2016-05-24T01:53:29.412Z,0
2016-05-24T01:54:29.634Z,0
2016-05-24T01:55:43.450Z,0
2016-05-24T01:56:29.703Z,0
2016-05-24T01:57:29.845Z,0
2016-05-24T01:58:29.645Z,0
2016-05-24T01:59:29.617Z,0
2016-05-24T02:00:43.901Z,0
2016-05-24T02:01:30.059Z,0
2016-05-24T02:02:29.890Z,0
2016-05-24T02:03:29.721Z,0
2016-05-24T02:04:30.067Z,0
2016-05-24T02:05:43.726Z,0
2016-05-24T02:06:29.495Z,0
2016-05-24T02:07:29.733Z,0
2016-05-24T02:08:29.703Z,0
2016-05-24T02:09:29.440Z,0
2016-05-24T02:10:29.630Z,0
2016-05-24T02:11:29.711Z,0
2016-05-24T02:12:29.480Z,0
2016-05-24T02:13:30.342Z,0
2016-05-24T02:14:30.001Z,0
2016-05-24T02:15:44.238Z,0
2016-05-24T02:16:30.006Z,0
2016-05-24T02:17:30.024Z,0
2016-05-24T02:18:44.308Z,0
2016-05-24T02:19:44.310Z,0
2016-05-24T02:21:58.160Z,0
2016-05-24T02:22:29.818Z,0
2016-05-24T02:23:43.915Z,0
2016-05-24T02:24:30.106Z,0
2016-05-24T02:25:30.499Z,0
2016-05-24T02:26:30.095Z,0
2016-05-24T02:27:29.598Z,0
2016-05-24T02:28:30.132Z,0
2016-05-24T02:29:30.057Z,0
2016-05-24T02:30:30.309Z,0
2016-05-24T02:31:29.750Z,0
2016-05-24T02:32:30.142Z,0
2016-05-24T02:33:30.161Z,0
2016-05-24T02:34:44.022Z,0
2016-05-24T02:35:29.933Z,0
2016-05-24T02:36:29.888Z,0
2016-05-24T02:37:29.797Z,0
2016-05-24T02:38:29.830Z,0
2016-05-24T02:39:30.146Z,0
2016-05-24T02:40:30.305Z,0
2016-05-24T02:42:29.920Z,0
2016-05-24T02:43:30.219Z,0
2016-05-24T02:45:29.943Z,0
2016-05-24T02:46:30.180Z,0
2016-05-24T02:47:30.777Z,0
2016-05-24T02:48:30.436Z,0
2016-05-24T02:49:30.110Z,0
2016-05-24T02:51:29.584Z,0
2016-05-24T02:53:31.356Z,0
2016-05-24T02:54:30.374Z,0
2016-05-24T02:55:30.501Z,0
2016-05-24T02:56:30.332Z,0
2016-05-24T02:57:29.507Z,0
2016-05-24T02:58:30.166Z,0
2016-05-24T02:59:30.872Z,0
2016-05-24T03:01:30.064Z,0
2016-05-24T03:02:30.208Z,0
2016-05-24T03:03:31.008Z,0
2016-05-24T03:04:30.307Z,0
2016-05-24T03:05:30.419Z,0
2016-05-24T03:06:30.141Z,0
2016-05-24T03:07:30.237Z,0
2016-05-24T03:08:29.927Z,0
2016-05-24T03:09:30.336Z,0
2016-05-24T03:10:44.261Z,0
2016-05-24T03:11:30.294Z,0
2016-05-24T03:12:31.047Z,0
2016-05-24T03:13:29.846Z,0
2016-05-24T03:15:30.118Z,5
2016-05-24T03:16:31.183Z,5
2016-05-24T03:17:44.421Z,5
2016-05-24T03:18:30.126Z,5
2016-05-24T03:19:44.831Z,5
2016-05-24T03:20:30.209Z,5
2016-05-24T03:21:30.399Z,10
2016-05-24T03:22:44.605Z,10
2016-05-24T03:23:30.608Z,10
2016-05-24T03:24:44.892Z,10
2016-05-24T03:25:29.926Z,15
2016-05-24T03:26:30.616Z,15
2016-05-24T03:27:30.728Z,15
2016-05-24T03:28:30.684Z,15
2016-05-24T03:29:31.015Z,15
2016-05-24T03:30:30.470Z,15
2016-05-24T03:31:30.645Z,15
2016-05-24T03:32:30.945Z,15
2016-05-24T03:33:30.900Z,15
2016-05-24T03:34:30.434Z,20
2016-05-24T03:35:30.672Z,25
2016-05-24T03:36:29.971Z,30
2016-05-24T03:37:44.256Z,30
2016-05-24T03:38:30.961Z,30
2016-05-24T03:39:30.995Z,30
2016-05-24T03:40:44.560Z,30
2016-05-24T03:41:30.578Z,30
2016-05-24T03:42:30.518Z,25
2016-05-24T03:43:31.209Z,20
2016-05-24T03:44:30.664Z,25
2016-05-24T03:45:31.339Z,30
2016-05-24T03:46:30.560Z,30
2016-05-24T03:47:44.860Z,30
2016-05-24T03:48:30.565Z,30
2016-05-24T03:49:30.632Z,35
2016-05-24T03:50:30.415Z,35
2016-05-24T03:51:30.652Z,35
2016-05-24T03:52:30.107Z,40
2016-05-24T03:53:31.033Z,40
2016-05-24T03:54:30.629Z,40
2016-05-24T03:55:30.632Z,40
2016-05-24T03:56:30.837Z,40
2016-05-24T03:57:30.668Z,40
2016-05-24T03:58:30.656Z,40
2016-05-24T03:59:30.658Z,45
2016-05-24T04:00:31.379Z,45
2016-05-24T04:01:30.882Z,45
2016-05-24T04:02:30.728Z,45
2016-05-24T04:03:30.731Z,40
2016-05-24T04:04:30.906Z,35
2016-05-24T04:05:30.909Z,35
2016-05-24T04:06:30.708Z,40
2016-05-24T04:07:30.461Z,45
2016-05-24T04:08:30.728Z,50
2016-05-24T04:09:30.106Z,55
2016-05-24T04:10:31.000Z,55
2016-05-24T04:11:30.566Z,60
2016-05-24T04:12:31.411Z,70
2016-05-24T04:13:30.946Z,75
2016-05-24T04:14:31.104Z,75
2016-05-24T04:15:31.669Z,75
2016-05-24T04:16:31.314Z,75
2016-05-24T04:17:45.097Z,70
2016-05-24T04:18:30.694Z,70
2016-05-24T04:19:30.540Z,70
2016-05-24T04:20:30.729Z,70
2016-05-24T04:21:30.874Z,70
2016-05-24T04:22:44.798Z,70
2016-05-24T04:23:31.285Z,70
2016-05-24T04:26:31.121Z,65
2016-05-24T04:27:45.108Z,70
2016-05-24T04:28:45.002Z,75
2016-05-24T04:29:30.926Z,75
2016-05-24T04:30:31.601Z,80
2016-05-24T04:31:30.994Z,85
2016-05-24T04:32:30.512Z,85
2016-05-24T04:33:31.203Z,85
2016-05-24T04:34:30.987Z,80
2016-05-24T04:35:31.036Z,75
2016-05-24T04:36:30.992Z,75
2016-05-24T04:37:31.853Z,80
2016-05-24T04:38:45.075Z,95
2016-05-24T04:39:31.047Z,105
2016-05-24T04:41:31.130Z,125
2016-05-24T04:42:31.289Z,125
2016-05-24T04:43:45.338Z,135
2016-05-24T04:44:31.295Z,140
2016-05-24T04:45:31.282Z,160
2016-05-24T04:46:45.035Z,180
2016-05-24T04:47:44.537Z,190
2016-05-24T04:48:30.961Z,195
2016-05-24T04:49:45.354Z,190
2016-05-24T04:50:45.249Z,190
2016-05-24T04:51:31.158Z,190
2016-05-24T04:52:31.176Z,185
2016-05-24T04:53:44.943Z,160
2016-05-24T04:54:31.040Z,160
2016-05-24T04:55:31.387Z,160
2016-05-24T04:56:31.233Z,155
2016-05-24T04:57:31.393Z,150
2016-05-24T04:58:31.504Z,145
2016-05-24T04:59:30.803Z,150
2016-05-24T05:00:31.510Z,165
2016-05-24T05:01:31.715Z,155
2016-05-24T05:02:31.328Z,165
2016-05-24T05:03:45.549Z,185
2016-05-24T05:04:31.911Z,190
2016-05-24T05:05:31.461Z,190
2016-05-24T05:06:31.338Z,185
2016-05-24T05:07:31.512Z,180
2016-05-24T05:08:31.547Z,180
2016-05-24T05:09:31.315Z,195
2016-05-24T05:10:31.270Z,205
2016-05-24T05:11:31.570Z,200
2016-05-24T05:12:31.276Z,210
2016-05-24T05:13:31.436Z,215
2016-05-24T05:14:31.422Z,215
2016-05-24T05:16:31.443Z,235
2016-05-24T05:17:31.430Z,250
2016-05-24T05:18:31.605Z,260
2016-05-24T05:19:31.467Z,280
2016-05-24T05:20:31.266Z,290
2016-05-24T05:21:31.488Z,300
2016-05-24T05:22:31.663Z,315
2016-05-24T05:23:31.494Z,325
2016-05-24T05:24:31.198Z,325
2016-05-24T05:25:31.936Z,330
2016-05-24T05:26:32.393Z,340
2016-05-24T05:27:31.301Z,360
2016-05-24T05:28:31.615Z,375
2016-05-24T05:29:45.821Z,395
2016-05-24T05:30:45.590Z,405
2016-05-24T05:31:31.577Z,405
2016-05-24T05:32:45.486Z,415
2016-05-24T05:33:31.630Z,420
2016-05-24T05:34:45.507Z,425
2016-05-24T05:35:31.478Z,435
2016-05-24T05:36:32.045Z,445
2016-05-24T05:37:31.797Z,445
2016-05-24T05:38:31.877Z,440
2016-05-24T05:39:31.489Z,435
2016-05-24T05:40:31.680Z,430
2016-05-24T05:42:45.966Z,390
2016-05-24T05:43:31.734Z,375
2016-05-24T05:44:31.909Z,355
2016-05-24T05:45:45.677Z,340
2016-05-24T05:46:45.977Z,345
2016-05-24T05:47:32.369Z,350
2016-05-24T05:48:46.091Z,355
2016-05-24T05:49:32.095Z,355
2016-05-24T05:50:32.144Z,360
2016-05-24T05:51:31.194Z,365
2016-05-24T05:52:31.633Z,360
2016-05-24T05:53:32.011Z,360
2016-05-24T05:54:31.904Z,370
2016-05-24T05:55:32.516Z,370
2016-05-24T05:56:32.066Z,365
2016-05-24T05:57:31.929Z,370
2016-05-24T05:58:31.306Z,375
2016-05-24T05:59:32.137Z,380
2016-05-24T06:00:31.577Z,385
2016-05-24T06:01:31.954Z,395
2016-05-24T06:02:31.754Z,400
2016-05-24T06:03:31.584Z,395
2016-05-24T06:04:31.979Z,400
2016-05-24T06:05:32.356Z,400
2016-05-24T06:06:31.750Z,410
2016-05-24T06:07:32.002Z,410
2016-05-24T06:08:46.270Z,395
2016-05-24T07:13:13.474Z,405
2016-05-24T07:13:26.602Z,420
2016-05-24T07:14:26.839Z,490
2016-05-24T07:15:40.841Z,510
2016-05-24T07:16:26.844Z,505
2016-05-24T07:17:26.612Z,465
2016-05-24T07:18:26.958Z,410
2016-05-24T07:19:41.258Z,355
2016-05-24T07:20:27.199Z,355
2016-05-24T07:21:26.483Z,345
2016-05-24T07:22:27.219Z,335
2016-05-24T07:23:41.613Z,340
2016-05-24T07:24:27.147Z,365
2016-05-24T07:25:27.103Z,385
2016-05-24T07:26:41.011Z,405
2016-05-24T07:27:27.171Z,420
2016-05-24T07:28:27.549Z,430
2016-05-24T07:29:27.816Z,425
2016-05-24T07:30:27.085Z,445
2016-05-24T07:31:27.243Z,445
2016-05-24T07:32:27.090Z,415
2016-05-24T07:33:26.999Z,370
2016-05-24T07:34:27.815Z,350
2016-05-24T07:35:27.051Z,350
2016-05-24T07:36:27.242Z,365
2016-05-24T07:37:41.245Z,410
2016-05-24T07:38:27.294Z,435
2016-05-24T07:39:27.703Z,480
2016-05-24T07:40:26.831Z,480
2016-05-24T07:42:27.070Z,425
2016-05-24T07:43:27.839Z,415
2016-05-24T07:44:41.216Z,400
2016-05-24T07:45:28.267Z,410
2016-05-24T07:46:27.440Z,440
2016-05-24T07:47:41.333Z,480
2016-05-24T07:48:27.650Z,520
2016-05-24T07:49:27.886Z,540
2016-05-24T07:50:30.451Z,560
2016-05-24T07:51:27.798Z,580
2016-05-24T07:52:41.347Z,615
2016-05-24T07:53:28.163Z,615
2016-05-24T07:55:27.871Z,485
2016-05-24T07:56:27.452Z,375
2016-05-24T07:57:27.267Z,335
2016-05-24T07:59:27.616Z,315
2016-05-24T08:00:28.774Z,330
2016-05-24T08:01:27.684Z,325
2016-05-24T08:03:55.877Z,385
2016-05-24T08:04:27.630Z,390
2016-05-24T08:05:29.945Z,435
2016-05-24T08:06:41.276Z,480
2016-05-24T08:07:27.809Z,485
2016-05-24T08:08:27.171Z,520
2016-05-24T08:09:41.284Z,580
2016-05-24T08:10:30.084Z,585
2016-05-24T08:11:27.961Z,535
2016-05-24T08:12:27.807Z,495
2016-05-24T08:13:27.060Z,480
2016-05-24T08:14:41.578Z,460
2016-05-24T08:15:30.128Z,425
2016-05-24T08:16:27.615Z,415
2016-05-24T08:17:27.384Z,430
2016-05-24T08:18:27.948Z,445
2016-05-24T08:19:28.044Z,480
2016-05-24T08:20:29.860Z,530
2016-05-24T08:21:28.176Z,570
2016-05-24T08:22:28.069Z,585
2016-05-24T08:23:27.525Z,585
2016-05-24T08:24:28.153Z,510
2016-05-24T08:25:28.124Z,485
2016-05-24T08:26:42.094Z,540
2016-05-24T08:27:42.332Z,625
2016-05-24T08:28:28.085Z,650
2016-05-24T08:29:27.885Z,650
2016-05-24T08:30:28.949Z,650
2016-05-24T08:31:41.999Z,690
2016-05-24T08:32:28.189Z,695
2016-05-24T08:33:28.176Z,660
2016-05-24T08:34:28.210Z,615
2016-05-24T08:35:43.182Z,570
2016-05-24T08:36:28.044Z,575
2016-05-24T08:37:42.109Z,580
2016-05-24T08:38:27.846Z,575
2016-05-24T08:39:27.942Z,550
2016-05-24T08:40:31.023Z,520
2016-05-24T08:41:27.667Z,495
2016-05-24T08:42:27.763Z,460
2016-05-24T08:43:42.204Z,405
2016-05-24T08:44:28.206Z,355
2016-05-24T08:46:28.086Z,315
2016-05-24T08:47:28.136Z,335
2016-05-24T08:48:28.731Z,360
2016-05-24T08:49:28.172Z,380
2016-05-24T08:50:29.973Z,425
2016-05-24T08:51:28.459Z,445
2016-05-24T08:52:28.274Z,465
2016-05-24T08:53:28.402Z,535
2016-05-24T08:54:28.186Z,585
2016-05-24T08:55:30.844Z,615
2016-05-24T08:56:28.426Z,620
2016-05-24T08:57:28.600Z,620
2016-05-24T08:58:28.072Z,605
2016-05-24T08:59:28.777Z,605
2016-05-24T09:00:31.702Z,600
2016-05-24T09:01:42.205Z,615
2016-05-24T09:02:28.473Z,630
2016-05-24T09:04:28.650Z,685
2016-05-24T09:05:29.606Z,715
2016-05-24T09:06:42.077Z,750
2016-05-24T09:07:28.330Z,755
2016-05-24T09:08:42.161Z,735
2016-05-24T09:09:41.913Z,720
2016-05-24T09:10:29.870Z,705
2016-05-24T09:11:28.638Z,700
2016-05-24T09:12:28.407Z,690
2016-05-24T09:13:28.362Z,685
2016-05-24T09:14:28.474Z,665
2016-05-24T09:15:29.712Z,655
2016-05-24T09:16:42.104Z,640
2016-05-24T09:17:42.092Z,645
2016-05-24T09:18:42.109Z,645
2016-05-24T09:19:28.203Z,650
2016-05-24T09:20:30.209Z,655
2016-05-24T09:21:28.428Z,660
2016-05-24T09:23:42.420Z,700
2016-05-24T09:24:28.311Z,720
2016-05-24T09:25:31.004Z,705
2016-05-24T09:26:28.332Z,710
2016-05-24T09:27:28.350Z,760
2016-05-24T09:28:29.762Z,725
2016-05-24T09:29:28.637Z,730
2016-05-24T09:30:30.658Z,720
2016-05-24T09:31:29.770Z,730
2016-05-24T09:32:29.475Z,720
2016-05-24T09:33:28.319Z,750
2016-05-24T09:34:28.869Z,760
2016-05-24T09:35:29.185Z,735
2016-05-24T09:36:43.220Z,705
2016-05-24T09:37:28.892Z,685
2016-05-24T09:38:29.411Z,655
2016-05-24T09:39:28.554Z,635
2016-05-24T09:40:29.416Z,630
2016-05-24T09:41:28.763Z,620
2016-05-24T09:42:29.218Z,635
2016-05-24T09:43:28.862Z,630
2016-05-24T09:44:42.976Z,625
2016-05-24T09:45:43.385Z,625
2016-05-24T09:46:30.622Z,630
2016-05-24T09:47:28.653Z,640
2016-05-24T09:48:29.735Z,635
2016-05-24T09:49:30.942Z,620
2016-05-24T09:50:33.040Z,605
2016-05-24T09:51:30.259Z,545
2016-05-24T09:52:28.886Z,485
2016-05-24T09:53:28.998Z,435
2016-05-24T09:54:42.941Z,430
2016-05-24T09:55:34.366Z,435
2016-05-24T09:56:31.056Z,415
2016-05-24T09:57:28.431Z,410
2016-05-24T09:58:28.839Z,440
2016-05-24T10:00:33.598Z,555
2016-05-24T10:01:29.848Z,595
2016-05-24T10:03:29.635Z,665
2016-05-24T10:04:43.358Z,700
2016-05-24T10:05:44.063Z,715
2016-05-24T10:06:43.065Z,725
2016-05-24T10:07:28.815Z,725
2016-05-24T10:08:29.965Z,700
2016-05-24T10:09:28.942Z,655
2016-05-24T10:10:29.545Z,625
2016-05-24T10:11:29.758Z,600
2016-05-24T10:12:29.679Z,570
2016-05-24T10:13:29.284Z,555
2016-05-24T10:14:28.388Z,570
2016-05-24T10:15:32.145Z,605
2016-05-24T10:16:42.980Z,635
2016-05-24T10:17:30.402Z,645
2016-05-24T10:18:29.408Z,635
2016-05-24T10:19:29.303Z,650
2016-05-24T10:20:29.621Z,650
2016-05-24T10:21:29.408Z,625
2016-05-24T10:22:30.131Z,615
2016-05-24T10:23:29.385Z,600
2016-05-24T10:25:34.005Z,520
2016-05-24T10:26:29.208Z,465
2016-05-24T10:27:57.715Z,415
2016-05-24T10:28:44.390Z,385
2016-05-24T10:29:30.625Z,340
2016-05-24T10:30:44.099Z,345
2016-05-24T10:31:29.021Z,365
2016-05-24T10:32:30.196Z,405
2016-05-24T10:33:29.683Z,470
2016-05-24T10:34:30.420Z,540
2016-05-24T10:35:31.407Z,615
2016-05-24T10:36:29.753Z,700
2016-05-24T10:37:32.553Z,800
2016-05-24T10:38:30.556Z,885
2016-05-24T10:39:29.903Z,970
2016-05-24T10:40:31.248Z,985
2016-05-24T10:41:29.642Z,970
2016-05-24T10:42:31.442Z,905
2016-05-24T10:43:29.256Z,840
2016-05-24T10:44:30.259Z,790
2016-05-24T10:45:32.278Z,750
2016-05-24T10:46:30.717Z,710
2016-05-24T10:47:31.455Z,690
2016-05-24T10:48:29.739Z,735
2016-05-24T10:49:30.086Z,800
2016-05-24T10:50:29.697Z,860
2016-05-24T10:51:29.700Z,895
2016-05-24T10:52:32.234Z,900
2016-05-24T10:53:29.940Z,925
2016-05-24T10:54:44.023Z,970
2016-05-24T10:55:32.038Z,975
2016-05-24T10:56:29.713Z,925
2016-05-24T10:57:44.110Z,835
2016-05-24T10:58:30.782Z,765
2016-05-24T10:59:29.956Z,740
2016-05-24T11:00:31.880Z,760
2016-05-24T11:01:29.804Z,770
2016-05-24T11:02:45.529Z,760
2016-05-24T11:04:30.110Z,770
2016-05-24T11:05:32.457Z,750
2016-05-24T11:06:30.756Z,740
2016-05-24T11:07:33.743Z,720
2016-05-24T11:08:30.949Z,710
2016-05-24T11:09:30.670Z,700
2016-05-24T11:10:30.298Z,670
2016-05-24T11:11:30.520Z,620
2016-05-24T11:13:29.947Z,565
2016-05-24T11:14:30.949Z,670
2016-05-24T11:15:30.953Z,785
2016-05-24T11:16:46.082Z,905
2016-05-24T11:17:31.894Z,910
2016-05-24T11:18:31.179Z,885
2016-05-24T11:19:30.806Z,840
2016-05-24T11:20:32.122Z,780
2016-05-24T11:21:45.174Z,665
2016-05-24T11:22:31.111Z,585
2016-05-24T11:23:30.489Z,490
2016-05-24T11:24:31.008Z,425
2016-05-24T11:25:30.854Z,395
2016-05-24T11:26:30.388Z,385
2016-05-24T11:27:30.219Z,375
2016-05-24T11:28:30.377Z,355
2016-05-24T11:29:30.412Z,320
2016-05-24T11:30:44.949Z,285
2016-05-24T11:31:30.418Z,270
2016-05-24T11:32:29.935Z,270
2016-05-24T11:33:30.594Z,270
2016-05-24T11:34:30.332Z,280
2016-05-24T11:35:30.929Z,285
2016-05-24T11:36:30.571Z,280
2016-05-24T11:37:30.948Z,265
2016-05-24T11:38:44.626Z,255
2016-05-24T11:39:30.407Z,260
2016-05-24T11:40:30.848Z,260
2016-05-24T11:41:30.490Z,255
2016-05-24T11:42:30.556Z,265
2016-05-24T11:43:30.637Z,285
2016-05-24T11:44:44.658Z,315
2016-05-24T11:45:30.955Z,340
2016-05-24T11:46:30.894Z,380
2016-05-24T11:47:30.491Z,405
2016-05-24T11:48:31.213Z,425
2016-05-24T11:49:30.825Z,445
2016-05-24T11:50:30.625Z,440
2016-05-24T11:51:30.737Z,410
2016-05-24T11:52:30.973Z,385
2016-05-24T11:53:31.305Z,375
2016-05-24T11:54:30.933Z,365
2016-05-24T11:55:30.622Z,365
2016-05-24T11:56:31.375Z,370
2016-05-24T11:57:45.818Z,385
2016-05-24T11:58:31.427Z,405
2016-05-24T11:59:31.274Z,440
2016-05-24T12:00:33.088Z,475
2016-05-24T12:01:45.360Z,475
2016-05-24T12:02:31.329Z,455
2016-05-24T12:03:31.221Z,390
2016-05-24T12:04:31.474Z,380
2016-05-24T12:05:31.227Z,370
2016-05-24T12:06:31.355Z,370
2016-05-24T12:07:31.529Z,350
2016-05-24T12:08:45.551Z,335
2016-05-24T12:09:31.004Z,335
2016-05-24T12:10:31.335Z,355
2016-05-24T12:11:32.134Z,365
2016-05-24T12:12:31.387Z,390
2016-05-24T12:13:31.233Z,420
2016-05-24T12:14:31.220Z,445
2016-05-24T12:15:32.051Z,465
2016-05-24T12:16:31.241Z,470
2016-05-24T12:17:31.150Z,465
2016-05-24T12:18:31.356Z,475
2016-05-24T12:19:31.172Z,500
2016-05-24T12:20:30.986Z,515
2016-05-24T12:21:31.644Z,530
2016-05-24T12:22:32.226Z,530
2016-05-24T12:23:31.916Z,545
2016-05-24T12:24:31.388Z,565
2016-05-24T12:25:31.749Z,585
2016-05-24T12:26:31.425Z,615
2016-05-24T12:27:31.052Z,615
2016-05-24T12:28:30.570Z,600
2016-05-24T12:29:31.276Z,585
2016-05-24T12:30:31.576Z,575
2016-05-24T12:31:31.344Z,565
2016-05-24T12:32:32.113Z,630
2016-05-24T12:33:31.552Z,680
2016-05-24T12:34:31.087Z,680
2016-05-24T12:35:32.027Z,640
2016-05-24T12:36:31.421Z,590
2016-05-24T12:37:31.891Z,495
2016-05-24T12:38:31.426Z,460
2016-05-24T12:39:31.646Z,375
2016-05-24T12:40:31.103Z,280
2016-05-24T12:41:31.481Z,250
2016-05-24T12:42:32.217Z,230
2016-05-24T12:43:31.439Z,235
2016-05-24T12:44:31.488Z,265
2016-05-24T12:45:31.787Z,285
2016-05-24T12:46:32.010Z,320
2016-05-24T12:47:31.278Z,290
2016-05-24T12:48:31.405Z,275
2016-05-24T12:49:31.783Z,280
2016-05-24T12:50:31.692Z,280
2016-05-24T12:51:31.414Z,310
2016-05-24T12:52:31.636Z,350
2016-05-24T12:53:33.028Z,375
2016-05-24T12:55:31.222Z,395
2016-05-24T12:56:32.661Z,420
2016-05-24T12:57:31.930Z,420
2016-05-24T12:58:46.482Z,390
2016-05-24T12:59:45.985Z,370
2016-05-24T13:00:32.422Z,360
2016-05-24T13:01:31.987Z,365
2016-05-24T13:02:31.677Z,390
2016-05-24T13:03:31.508Z,420
2016-05-24T13:04:31.713Z,450
2016-05-24T13:05:32.060Z,480
2016-05-24T13:06:32.001Z,500
2016-05-24T13:07:31.394Z,520
2016-05-24T13:08:46.462Z,540
2016-05-24T13:09:33.259Z,520
2016-05-24T13:10:31.573Z,500
2016-05-24T13:11:32.937Z,485
2016-05-24T13:12:32.564Z,475
2016-05-24T13:13:32.332Z,460
2016-05-24T13:14:33.663Z,295
2016-05-24T13:15:46.262Z,325
2016-05-24T13:16:32.340Z,365
2016-05-24T13:17:32.311Z,270
2016-05-24T13:18:32.376Z,195
2016-05-24T13:19:34.895Z,245
2016-05-24T13:21:32.088Z,220
2016-05-24T13:22:32.169Z,235
2016-05-24T13:23:32.421Z,220
2016-05-24T13:25:31.802Z,155
2016-05-24T13:26:32.335Z,180
2016-05-24T13:27:31.901Z,175
2016-05-24T13:28:31.858Z,165
2016-05-24T13:29:32.391Z,185
2016-05-24T13:30:46.146Z,170
2016-05-24T13:31:32.036Z,160
2016-05-24T13:32:32.618Z,125
2016-05-24T13:33:46.091Z,135
2016-05-24T13:34:33.763Z,145
2016-05-24T13:35:32.157Z,145
2016-05-24T13:36:32.082Z,145
2016-05-24T13:37:32.224Z,135
2016-05-24T13:38:32.384Z,155
2016-05-24T13:39:33.605Z,175
2016-05-24T13:40:32.779Z,150
2016-05-24T13:41:32.267Z,140
2016-05-24T13:42:32.238Z,160
2016-05-24T13:43:32.506Z,145
2016-05-24T13:44:32.415Z,135
2016-05-24T13:45:32.339Z,145
2016-05-24T13:46:46.502Z,145
2016-05-24T13:47:32.393Z,145
2016-05-24T13:48:46.584Z,145
2016-05-24T13:49:32.428Z,135
2016-05-24T13:50:32.337Z,130
2016-05-24T13:51:32.215Z,105
2016-05-24T13:52:32.749Z,95
2016-05-24T13:53:32.470Z,115
2016-05-24T13:54:46.945Z,120
2016-05-24T13:55:32.492Z,110
2016-05-24T13:56:32.697Z,115
2016-05-24T13:57:32.403Z,115
2016-05-24T13:58:32.390Z,110
2016-05-24T13:59:32.502Z,105
2016-05-24T14:00:32.864Z,115
2016-05-24T14:01:32.539Z,110
2016-05-24T14:02:32.386Z,95
2016-05-24T14:03:32.732Z,100
2016-05-24T14:04:32.765Z,105
2016-05-24T14:05:32.519Z,105
2016-05-24T14:06:32.756Z,110
2016-05-24T14:07:46.652Z,100
2016-05-24T14:08:33.011Z,95
2016-05-24T14:09:31.763Z,90
2016-05-24T14:10:32.595Z,90
2016-05-24T14:11:32.441Z,95
2016-05-24T14:12:32.803Z,80
2016-05-24T14:13:32.853Z,90
2016-05-24T14:14:32.714Z,100
2016-05-24T14:15:34.108Z,120
2016-05-24T14:16:32.673Z,125
2016-05-24T14:17:32.926Z,125
2016-05-24T14:18:32.929Z,140
2016-05-24T14:19:33.384Z,160
2016-05-24T14:20:46.343Z,125
2016-05-24T14:21:32.937Z,135
2016-05-24T14:22:32.596Z,145
2016-05-24T14:23:46.820Z,135
2016-05-24T14:24:33.586Z,130
2016-05-24T14:25:32.979Z,140
2016-05-24T14:26:46.531Z,150
2016-05-24T14:27:32.500Z,150
2016-05-24T14:28:32.769Z,150
2016-05-24T14:29:32.880Z,155
2016-05-24T14:30:32.649Z,150
2016-05-24T14:31:33.479Z,150
2016-05-24T14:32:33.325Z,155
2016-05-24T14:33:33.297Z,140
2016-05-24T14:34:47.178Z,120
2016-05-24T14:35:47.383Z,120
2016-05-24T14:36:32.633Z,115
2016-05-24T14:37:32.885Z,120
2016-05-24T14:38:32.999Z,125
2016-05-24T14:39:32.985Z,115
2016-05-24T14:40:32.675Z,110
2016-05-24T14:41:47.118Z,105
2016-05-24T14:42:33.415Z,110
2016-05-24T14:43:32.965Z,115
2016-05-24T14:44:32.812Z,115
2016-05-24T14:45:32.782Z,105
2016-05-24T14:46:33.067Z,90
2016-05-24T14:48:33.040Z,80
2016-05-24T14:49:32.356Z,80
2016-05-24T14:50:33.109Z,85
2016-05-24T14:51:33.080Z,95
2016-05-24T14:52:33.239Z,95
2016-05-24T14:53:32.617Z,100
2016-05-24T14:54:33.119Z,100
2016-05-24T14:55:33.278Z,100
2016-05-24T14:56:47.018Z,95
2016-05-24T14:57:33.159Z,95
2016-05-24T14:58:33.333Z,100
2016-05-24T14:59:32.836Z,95
2016-05-24T15:00:33.072Z,90
2016-05-24T15:02:47.644Z,95
2016-05-24T15:03:33.238Z,90
2016-05-24T15:04:47.524Z,95
2016-05-24T15:05:33.789Z,95
2016-05-24T15:06:33.416Z,100
2016-05-24T15:07:33.216Z,95
2016-05-24T15:08:33.297Z,95
2016-05-24T15:09:33.081Z,105
2016-05-24T15:10:33.085Z,110
2016-05-24T15:11:33.680Z,100
2016-05-24T15:12:47.561Z,120
2016-05-24T15:13:47.407Z,110
2016-05-24T15:14:33.345Z,95
2016-05-24T15:15:47.148Z,90
2016-05-24T15:16:33.054Z,95
2016-05-24T15:17:33.400Z,105
2016-05-24T15:18:33.403Z,95
2016-05-24T15:19:33.639Z,90
2016-05-24T15:20:33.439Z,75
2016-05-24T15:21:33.786Z,70
2016-05-24T15:22:33.382Z,65
2016-05-24T15:23:33.494Z,60
2016-05-24T15:24:33.434Z,60
2016-05-24T15:25:33.296Z,60
2016-05-24T15:26:33.627Z,55
2016-05-24T15:27:33.709Z,55
2016-05-24T15:28:33.366Z,55
2016-05-24T15:29:47.591Z,60
2016-05-24T15:30:47.750Z,65
2016-05-24T15:31:33.031Z,70
2016-05-24T15:33:33.552Z,65
2016-05-24T15:34:33.633Z,75
2016-05-24T15:36:34.154Z,75
2016-05-24T15:37:33.250Z,75
2016-05-24T15:38:33.440Z,75
2016-05-24T15:39:33.240Z,75
2016-05-24T15:40:33.602Z,70
2016-05-24T15:41:34.121Z,75
2016-05-24T15:43:33.891Z,120